sensor_id;sensor_type;location;lat;lon;timestamp;pressure;altitude;pressure_sealevel;temperature;humidity
48154;BME280;33942;49.272;14.452;2022-09-13T07:19:58;96797.67;;;9.78;100.00
48154;BME280;33942;49.272;14.452;2022-09-13T07:22:25;96798.06;;;11.95;100.00
48154;BME280;33942;49.272;14.452;2022-09-13T07:24:52;96794.92;;;14.84;100.00
48154;BME280;33942;49.272;14.452;2022-09-13T07:27:20;96798.11;;;15.30;95.42
48154;BME280;33942;49.272;14.452;2022-09-13T07:29:47;96798.58;;;15.53;91.82
48154;BME280;33942;49.272;14.452;2022-09-13T07:32:15;96796.96;;;15.93;87.33
48154;BME280;33942;49.272;14.452;2022-09-13T07:34:42;96797.15;;;16.46;86.55
48154;BME280;33942;49.272;14.452;2022-09-13T07:37:10;96799.64;;;16.77;84.73
48154;BME280;33942;49.272;14.452;2022-09-13T07:39:37;96799.96;;;16.95;84.04
48154;BME280;33942;49.272;14.452;2022-09-13T07:42:04;96804.04;;;17.02;82.54
48154;BME280;33942;49.272;14.452;2022-09-13T07:44:32;96800.93;;;17.08;81.28
48154;BME280;33942;49.272;14.452;2022-09-13T07:46:59;96800.46;;;17.31;80.01
48154;BME280;33942;49.272;14.452;2022-09-13T07:49:27;96801.59;;;17.25;78.75
48154;BME280;33942;49.272;14.452;2022-09-13T07:51:54;96797.82;;;17.75;78.77
48154;BME280;33942;49.272;14.452;2022-09-13T07:54:21;96797.65;;;17.60;78.28
48154;BME280;33942;49.272;14.452;2022-09-13T07:56:49;96796.86;;;17.71;77.10
48154;BME280;33942;49.272;14.452;2022-09-13T07:59:17;96797.70;;;17.95;76.58
48154;BME280;33942;49.272;14.452;2022-09-13T08:01:46;96794.56;;;18.36;77.22
48154;BME280;33942;49.272;14.452;2022-09-13T08:04:15;96791.95;;;18.23;76.82
48154;BME280;33942;49.272;14.452;2022-09-13T08:06:43;96790.56;;;18.06;77.34
48154;BME280;33942;49.272;14.452;2022-09-13T08:09:12;96792.91;;;18.46;75.48
48154;BME280;33942;49.272;14.452;2022-09-13T08:11:41;96797.91;;;18.49;77.31
48154;BME280;33942;49.272;14.452;2022-09-13T08:14:10;96795.63;;;18.44;75.63
48154;BME280;33942;49.272;14.452;2022-09-13T08:16:38;96792.63;;;18.53;76.36
48154;BME280;33942;49.272;14.452;2022-09-13T08:19:07;96788.03;;;18.67;75.68
48154;BME280;33942;49.272;14.452;2022-09-13T08:20:27;96785.36;;;18.44;74.92
48154;BME280;33942;49.272;14.452;2022-09-13T08:22:55;96785.84;;;18.82;74.82
48154;BME280;33942;49.272;14.452;2022-09-13T08:25:22;96790.15;;;19.35;73.76
48154;BME280;33942;49.272;14.452;2022-09-13T08:27:49;96793.08;;;18.96;73.24
48154;BME280;33942;49.272;14.452;2022-09-13T08:30:17;96791.45;;;19.07;73.59
48154;BME280;33942;49.272;14.452;2022-09-13T08:32:44;96789.07;;;19.17;72.66
48154;BME280;33942;49.272;14.452;2022-09-13T08:35:15;96782.16;;;19.23;72.19
48154;BME280;33942;49.272;14.452;2022-09-13T08:37:43;96780.64;;;19.52;71.57
48154;BME280;33942;49.272;14.452;2022-09-13T08:40:10;96783.36;;;20.03;73.32
48154;BME280;33942;49.272;14.452;2022-09-13T08:42:46;96787.44;;;19.77;70.77
48154;BME280;33942;49.272;14.452;2022-09-13T08:45:17;96789.39;;;20.58;68.90
48154;BME280;33942;49.272;14.452;2022-09-13T08:47:48;96787.37;;;20.40;69.34
48154;BME280;33942;49.272;14.452;2022-09-13T08:50:21;96787.94;;;20.01;69.27
48154;BME280;33942;49.272;14.452;2022-09-13T08:52:59;96792.09;;;20.41;69.17
48154;BME280;33942;49.272;14.452;2022-09-13T08:55:38;96786.04;;;20.57;69.10
48154;BME280;33942;49.272;14.452;2022-09-13T08:58:22;96787.02;;;20.37;71.12
48154;BME280;33942;49.272;14.452;2022-09-13T09:00:59;96787.64;;;20.99;68.93
48154;BME280;33942;49.272;14.452;2022-09-13T09:03:34;96785.77;;;21.25;68.06
48154;BME280;33942;49.272;14.452;2022-09-13T09:06:11;96783.97;;;21.53;65.83
48154;BME280;33942;49.272;14.452;2022-09-13T09:08:41;96784.93;;;21.55;64.81
48154;BME280;33942;49.272;14.452;2022-09-13T09:11:13;96787.34;;;21.96;66.93
48154;BME280;33942;49.272;14.452;2022-09-13T09:13:50;96787.50;;;21.96;64.30
48154;BME280;33942;49.272;14.452;2022-09-13T09:16:30;96783.66;;;22.57;63.12
48154;BME280;33942;49.272;14.452;2022-09-13T09:19:10;96787.90;;;22.41;59.80
48154;BME280;33942;49.272;14.452;2022-09-13T09:23:15;96781.14;;;22.93;59.11
48154;BME280;33942;49.272;14.452;2022-09-13T09:25:43;96773.68;;;23.31;53.76
48154;BME280;33942;49.272;14.452;2022-09-13T09:28:12;96773.04;;;23.52;54.03
48154;BME280;33942;49.272;14.452;2022-09-13T09:30:48;96771.61;;;23.79;54.32
48154;BME280;33942;49.272;14.452;2022-09-13T09:33:31;96771.46;;;24.15;52.99
48154;BME280;33942;49.272;14.452;2022-09-13T09:36:06;96769.74;;;23.80;51.18
48154;BME280;33942;49.272;14.452;2022-09-13T09:38:38;96765.58;;;23.91;50.70
48154;BME280;33942;49.272;14.452;2022-09-13T09:41:13;96764.46;;;24.46;52.77
48154;BME280;33942;49.272;14.452;2022-09-13T09:43:46;96753.70;;;24.95;51.59
48154;BME280;33942;49.272;14.452;2022-09-13T09:46:16;96747.27;;;24.59;49.47
48154;BME280;33942;49.272;14.452;2022-09-13T09:48:51;96754.52;;;25.04;50.04
48154;BME280;33942;49.272;14.452;2022-09-13T09:51:22;96754.95;;;24.95;48.70
48154;BME280;33942;49.272;14.452;2022-09-13T09:53:56;96748.58;;;25.70;49.33
48154;BME280;33942;49.272;14.452;2022-09-13T09:56:29;96742.22;;;26.16;48.57
48154;BME280;33942;49.272;14.452;2022-09-13T09:58:56;96737.64;;;26.57;45.09
48154;BME280;33942;49.272;14.452;2022-09-13T10:01:24;96738.56;;;26.86;44.88
48154;BME280;33942;49.272;14.452;2022-09-13T10:04:01;96736.43;;;27.16;41.00
48154;BME280;33942;49.272;14.452;2022-09-13T10:06:30;96732.54;;;27.48;42.43
48154;BME280;33942;49.272;14.452;2022-09-13T10:08:59;96728.13;;;27.40;40.58
48154;BME280;33942;49.272;14.452;2022-09-13T10:11:38;96721.39;;;27.57;41.31
48154;BME280;33942;49.272;14.452;2022-09-13T10:14:21;96716.10;;;28.05;39.85
48154;BME280;33942;49.272;14.452;2022-09-13T10:17:01;96713.72;;;28.52;41.38
48154;BME280;33942;49.272;14.452;2022-09-13T10:19:29;96715.04;;;28.29;38.68
48154;BME280;33942;49.272;14.452;2022-09-13T10:22:02;96716.81;;;28.38;35.50
48154;BME280;33942;49.272;14.452;2022-09-13T10:23:45;96714.55;;;28.11;35.09
48154;BME280;33942;49.272;14.452;2022-09-13T10:26:15;96710.20;;;28.42;35.42
48154;BME280;33942;49.272;14.452;2022-09-13T10:28:45;96705.23;;;28.85;36.77
48154;BME280;33942;49.272;14.452;2022-09-13T10:31:15;96710.40;;;28.20;36.29
48154;BME280;33942;49.272;14.452;2022-09-13T10:33:51;96707.49;;;28.55;36.29
48154;BME280;33942;49.272;14.452;2022-09-13T10:36:25;96703.15;;;29.49;33.76
48154;BME280;33942;49.272;14.452;2022-09-13T10:38:57;96704.58;;;30.10;34.36
48154;BME280;33942;49.272;14.452;2022-09-13T10:41:26;96700.18;;;30.62;32.07
48154;BME280;33942;49.272;14.452;2022-09-13T10:43:56;96695.72;;;30.37;32.87
48154;BME280;33942;49.272;14.452;2022-09-13T10:46:24;96697.74;;;30.54;32.56
48154;BME280;33942;49.272;14.452;2022-09-13T10:48:52;96692.50;;;30.77;30.68
48154;BME280;33942;49.272;14.452;2022-09-13T10:51:30;96682.43;;;30.65;31.33
48154;BME280;33942;49.272;14.452;2022-09-13T10:54:18;96683.99;;;31.30;31.59
48154;BME280;33942;49.272;14.452;2022-09-13T10:56:46;96681.13;;;30.94;29.51
48154;BME280;33942;49.272;14.452;2022-09-13T10:59:21;96675.83;;;30.65;29.19
48154;BME280;33942;49.272;14.452;2022-09-13T11:02:35;96674.58;;;29.93;28.66
48154;BME280;33942;49.272;14.452;2022-09-13T11:05:16;96666.00;;;29.93;29.92
48154;BME280;33942;49.272;14.452;2022-09-13T11:08:00;96658.58;;;30.07;30.23
48154;BME280;33942;49.272;14.452;2022-09-13T11:10:36;96654.14;;;30.27;32.69
48154;BME280;33942;49.272;14.452;2022-09-13T11:13:12;96652.35;;;30.53;30.75
48154;BME280;33942;49.272;14.452;2022-09-13T11:15:48;96648.26;;;31.51;30.46
48154;BME280;33942;49.272;14.452;2022-09-13T11:18:37;96647.37;;;31.79;30.70
48154;BME280;33942;49.272;14.452;2022-09-13T11:21:17;96645.86;;;30.94;29.72
48154;BME280;33942;49.272;14.452;2022-09-13T11:23:58;96644.95;;;30.06;30.06
48154;BME280;33942;49.272;14.452;2022-09-13T11:26:38;96640.58;;;29.63;29.47
48154;BME280;33942;49.272;14.452;2022-09-13T11:29:21;96637.87;;;29.48;29.29
48154;BME280;33942;49.272;14.452;2022-09-13T11:32:03;96636.60;;;30.51;29.06
48154;BME280;33942;49.272;14.452;2022-09-13T11:34:44;96634.23;;;30.80;30.10
48154;BME280;33942;49.272;14.452;2022-09-13T11:37:30;96632.22;;;30.85;29.80
48154;BME280;33942;49.272;14.452;2022-09-13T11:40:18;96629.34;;;31.46;28.89
48154;BME280;33942;49.272;14.452;2022-09-13T11:42:58;96624.63;;;31.50;29.85
48154;BME280;33942;49.272;14.452;2022-09-13T11:45:28;96619.41;;;31.97;28.04
48154;BME280;33942;49.272;14.452;2022-09-13T11:48:39;96618.19;;;31.83;28.08
48154;BME280;33942;49.272;14.452;2022-09-13T11:51:16;96618.01;;;32.12;27.60
48154;BME280;33942;49.272;14.452;2022-09-13T11:53:56;96615.69;;;32.50;28.71
48154;BME280;33942;49.272;14.452;2022-09-13T11:56:31;96611.01;;;32.57;27.06
48154;BME280;33942;49.272;14.452;2022-09-13T11:59:09;96608.03;;;32.48;26.80
48154;BME280;33942;49.272;14.452;2022-09-13T12:01:44;96602.57;;;33.01;28.47
48154;BME280;33942;49.272;14.452;2022-09-13T12:04:17;96599.92;;;33.16;26.57
48154;BME280;33942;49.272;14.452;2022-09-13T12:06:49;96597.05;;;32.96;25.73
48154;BME280;33942;49.272;14.452;2022-09-13T12:09:22;96595.46;;;32.72;25.90
48154;BME280;33942;49.272;14.452;2022-09-13T12:11:54;96595.53;;;32.75;26.61
